Saturn, Texas
Current Conditions -  °F | °C
As of 6:51 PM on Saturday 25 Oct 2014 (Local Time) from KHYI Reporting Station
Clear Clear  
Wind Chill: 81°   Ceiling: Unl
Heat Index: 81°   Visibility: 10mi
Dew Point: 54°   Wind: 7mph
Humidity: 39%   Direction: 110°ESE
Pressure: 30.08"   Gusts: NA
Location:  29.6608°N, 97.4854°W
Report Text: KHYI 252351Z 11006KT 10SM SKC 27/12 A3008 RMK LAST
Loading
Personal Weather Stations






























Interactive Weather Map
Tropical Storm Tracking
New forecast layout! Learn more

10-Day Weather Forecast

Advertisements
Track Severe Weather on mobile